Carp Lake, MI

3:11 PM EST on January 28, 2015 (GMT -0500)
Creekside, 4 Miles WSW Bliss | Change Station
CLOSE
Current Station
Personal Weather Station
Location: Bliss Township, MI
Elevation: 708 ft
Nearby Weather Stations

Elev 708 ft 45.65 °N, 84.92 °W | Updated 18 seconds ago

Partly Cloudy
Partly Cloudy
29.2 °F
Feels Like 21 °F
N
8.0
Wind Variable Wind from South
Gusts 13.0 mph

Today
High -- | Low -- °F
--% Chance of Precip.
Yesterday
High -- | Low -- °F
Precip. -- in
8:05 AM 5:39 PM
Waxing Gibbous, 67% visible
Pressure 30.22 in
Visibility 10.0 miles
Clouds Clear
Windchill 21 °F
Dew Point 10 °F
Humidity 43%
Rainfall 0.00 in
Snow Depth Not available.
UV 2 out of 12
Pollen .10 out of 12
Air Quality Not available.
Flu Activity Not available.
METAR KPLN 281954Z AUTO 12004KT 10SM CLR M02/M13 A3016 RMK AO2 SLP231 T10221133

More Conditions Fewer Conditions

Pressure 30.22 in
Visibility 10.0 miles
Clouds Clear
Windchill 21 °F
Dew Point 10 °F
Humidity 43%
Rainfall 0.00 in
Snow Depth Not available.
UV 2 out of 12
Pollen .10 out of 12
Air Quality Not available.
Flu Activity Not available.
METAR KPLN 281954Z AUTO 12004KT 10SM CLR M02/M13 A3016 RMK AO2 SLP231 T10221133

More Conditions Fewer Conditions

Nowcast | as of 3:00 PM EST on January 28, 2015

At 4 PM...mostly cloudy. Temperature 28. South winds 5 mph. At 6 PM...mostly cloudy. Temperature 27. Southeast winds 5 mph. At 8 PM...mostly cloudy. Temperature 25. Southeast winds 5 mph. At 10 PM...mostly cloudy. Temperature 24. Southeast winds 5 mph.

×

10-Day Weather Forecast

Almanac

Astronomy

Jan. 28, 2015 Rise Set
Actual Time
Civil Twilight
Nautical Twilight
Astronomical Twilight
Moon
Length of Visible Light
Length of Day
Tomorrow will be .
, % of the Moon is Illuminated

Today's Extremes

State Highs State Lows

Community

WunderPhotos

Upload Photos

1,791,251 photos uploaded!

WunderBlogs® & News

Nearby

Air Quality

  Air Quality AQ Index Pollutant
Not available.

Snow Depth

Station Depth Elevation

Earthquake Activity

City Distance Mag. Time & Date
Minimum magnitude displayed is 2.5.

Coastal Water Temperatures

Place Temperature

Nearby Weather Stations